createdAt,value
2019-03-30T00:00:30.919Z,29.63
2019-03-30T00:02:59.197Z,28.79
2019-03-30T00:05:27.522Z,30.41
2019-03-30T00:07:55.809Z,31.27
2019-03-30T00:10:24.214Z,29.42
2019-03-30T00:12:52.586Z,27.69
2019-03-30T00:15:20.866Z,29.95
2019-03-30T00:17:49.148Z,28.62
2019-03-30T00:20:17.471Z,28.74
2019-03-30T00:22:45.736Z,30.47
2019-03-30T00:25:14.008Z,30.66
2019-03-30T00:27:42.276Z,29.50
2019-03-30T00:30:10.919Z,29.83
2019-03-30T00:32:39.189Z,29.55
2019-03-30T00:35:07.499Z,29.54
2019-03-30T00:37:35.776Z,29.40
2019-03-30T00:40:05.468Z,30.36
2019-03-30T00:42:33.748Z,29.55
2019-03-30T00:45:02.034Z,30.43
2019-03-30T00:47:30.296Z,30.41
2019-03-30T00:49:58.562Z,30.22
2019-03-30T00:52:27.726Z,30.82
2019-03-30T00:54:55.995Z,31.49
2019-03-30T00:57:24.257Z,31.00
2019-03-30T00:59:52.502Z,31.02
2019-03-30T01:02:20.791Z,30.56
2019-03-30T01:04:49.041Z,31.00
2019-03-30T01:07:17.355Z,30.17
2019-03-30T01:09:45.653Z,31.06
2019-03-30T01:12:13.936Z,30.48
2019-03-30T01:14:42.208Z,29.41
2019-03-30T01:17:10.558Z,29.67
2019-03-30T01:19:38.835Z,30.39
2019-03-30T01:22:07.098Z,30.05
2019-03-30T01:24:35.352Z,30.77
2019-03-30T01:27:03.776Z,30.34
2019-03-30T01:29:32.102Z,30.86
2019-03-30T01:32:00.356Z,30.53
2019-03-30T01:34:28.630Z,30.93
2019-03-30T01:36:56.888Z,33.59
2019-03-30T01:39:25.165Z,33.51
2019-03-30T01:41:53.493Z,31.67
2019-03-30T01:44:21.751Z,31.68
2019-03-30T01:46:50.019Z,32.00
2019-03-30T01:49:18.288Z,31.76
2019-03-30T01:51:46.551Z,32.36
2019-03-30T01:54:14.795Z,33.10
2019-03-30T01:56:43.057Z,32.87
2019-03-30T01:59:11.325Z,32.35
2019-03-30T02:01:39.613Z,33.07
2019-03-30T02:04:07.881Z,32.45
2019-03-30T02:06:36.169Z,31.63
2019-03-30T02:09:05.306Z,31.60
2019-03-30T02:11:33.585Z,31.46
2019-03-30T02:14:01.855Z,31.07
2019-03-30T02:16:30.136Z,31.37
2019-03-30T02:18:58.380Z,32.21
2019-03-30T02:21:26.635Z,32.20
2019-03-30T02:23:54.904Z,32.25
2019-03-30T02:26:23.157Z,31.64
2019-03-30T02:28:51.428Z,31.17
2019-03-30T02:31:19.692Z,31.05
2019-03-30T02:33:47.946Z,32.09
2019-03-30T02:36:16.202Z,32.33
2019-03-30T02:38:44.470Z,32.14
2019-03-30T02:41:12.737Z,31.21
2019-03-30T02:43:41.002Z,32.16
2019-03-30T02:46:09.259Z,33.98
2019-03-30T02:48:37.555Z,32.90
2019-03-30T02:51:05.857Z,35.42
2019-03-30T02:53:34.125Z,33.36
2019-03-30T02:56:02.413Z,34.50
2019-03-30T02:58:30.676Z,32.94
2019-03-30T03:00:58.921Z,33.45
2019-03-30T03:03:27.272Z,34.85
2019-03-30T03:05:55.530Z,34.95
2019-03-30T03:08:23.779Z,33.77
2019-03-30T03:10:52.046Z,33.76
2019-03-30T03:13:20.294Z,33.31
2019-03-30T03:15:48.553Z,32.63
2019-03-30T03:18:16.816Z,33.26
2019-03-30T03:20:45.064Z,31.69
2019-03-30T03:23:13.329Z,31.68
2019-03-30T03:25:41.629Z,32.65
2019-03-30T03:28:09.896Z,34.48
2019-03-30T03:30:38.174Z,32.72
2019-03-30T03:33:06.443Z,32.61
2019-03-30T03:35:34.701Z,32.85
2019-03-30T03:38:03.097Z,33.24
2019-03-30T03:40:31.349Z,33.61
2019-03-30T03:42:59.687Z,32.97
2019-03-30T03:45:27.932Z,33.84
2019-03-30T03:47:56.224Z,32.39
2019-03-30T03:50:35.890Z,33.48
2019-03-30T03:53:04.310Z,33.01
2019-03-30T03:55:33.797Z,33.88
2019-03-30T03:58:03.136Z,32.64
2019-03-30T04:00:31.673Z,34.15
2019-03-30T04:03:01.287Z,32.52
2019-03-30T04:05:29.609Z,32.18
2019-03-30T04:07:59.450Z,32.33
2019-03-30T04:10:30.145Z,34.60
2019-03-30T04:12:59.164Z,34.89
2019-03-30T04:15:27.480Z,34.48
2019-03-30T04:17:55.747Z,33.57
2019-03-30T04:20:24.440Z,33.46
2019-03-30T04:22:54.251Z,33.06
2019-03-30T04:25:22.815Z,33.36
2019-03-30T04:27:51.066Z,35.77
2019-03-30T04:30:19.339Z,35.96
2019-03-30T04:32:47.610Z,35.02
2019-03-30T04:35:15.887Z,37.84
2019-03-30T04:37:44.156Z,36.82
2019-03-30T04:40:12.410Z,36.54
2019-03-30T04:42:40.718Z,35.67
2019-03-30T04:45:09.055Z,35.44
2019-03-30T04:47:37.322Z,35.65
2019-03-30T04:50:06.607Z,36.24
2019-03-30T04:52:34.853Z,35.60
2019-03-30T04:55:03.985Z,38.00
2019-03-30T04:57:32.229Z,35.71
2019-03-30T05:00:00.517Z,36.31
2019-03-30T05:02:28.775Z,37.12
2019-03-30T05:04:57.052Z,38.15
2019-03-30T05:07:25.348Z,35.46
2019-03-30T05:09:53.631Z,35.38
2019-03-30T05:12:21.896Z,35.85
2019-03-30T05:14:50.213Z,33.40
2019-03-30T05:17:18.514Z,33.43
2019-03-30T05:19:46.816Z,32.99
2019-03-30T05:22:16.700Z,33.54
2019-03-30T05:24:45.128Z,31.75
2019-03-30T05:27:13.410Z,31.90
2019-03-30T05:29:41.712Z,32.86
2019-03-30T05:32:09.963Z,34.86
2019-03-30T05:34:38.224Z,34.93
2019-03-30T05:37:06.514Z,35.71
2019-03-30T05:39:34.790Z,35.56
2019-03-30T05:42:03.059Z,35.49
2019-03-30T05:44:31.318Z,35.06
2019-03-30T05:46:59.574Z,37.69
2019-03-30T05:49:27.850Z,34.83
2019-03-30T05:51:56.127Z,34.39
2019-03-30T05:54:24.404Z,35.07
2019-03-30T05:56:52.661Z,35.86
2019-03-30T05:59:20.960Z,35.54
2019-03-30T06:01:49.246Z,33.65
2019-03-30T06:04:17.517Z,33.69
2019-03-30T06:06:45.776Z,35.12
2019-03-30T06:09:14.038Z,33.69
2019-03-30T06:11:42.328Z,33.49
2019-03-30T06:14:10.584Z,33.57
2019-03-30T06:16:38.880Z,34.88
2019-03-30T06:19:07.141Z,34.26
2019-03-30T06:21:35.407Z,34.67
2019-03-30T06:24:03.783Z,36.18
2019-03-30T06:26:32.043Z,36.15
2019-03-30T06:29:00.322Z,36.59
2019-03-30T06:31:28.583Z,35.90
2019-03-30T06:33:56.843Z,36.29
2019-03-30T06:36:25.121Z,36.74
2019-03-30T06:38:53.395Z,36.36
2019-03-30T06:41:21.680Z,37.36
2019-03-30T06:43:49.957Z,37.27
2019-03-30T06:46:18.307Z,38.46
2019-03-30T06:48:46.610Z,37.53
2019-03-30T06:51:14.926Z,37.67
2019-03-30T06:53:43.201Z,35.28
2019-03-30T06:56:11.550Z,35.66
2019-03-30T06:58:39.740Z,35.33
2019-03-30T07:01:08.074Z,35.21
2019-03-30T07:03:36.643Z,36.16
2019-03-30T07:06:04.981Z,36.36
2019-03-30T07:08:33.932Z,36.23
2019-03-30T07:11:03.181Z,35.86
2019-03-30T07:13:34.072Z,34.33
2019-03-30T07:16:03.908Z,35.19
2019-03-30T07:18:32.849Z,34.49
2019-03-30T07:21:01.116Z,36.95
2019-03-30T07:23:29.396Z,36.91
2019-03-30T07:25:57.657Z,37.33
2019-03-30T07:28:25.939Z,37.34
2019-03-30T07:30:54.201Z,36.20
2019-03-30T07:33:22.555Z,34.92
2019-03-30T07:35:50.835Z,33.98
2019-03-30T07:38:19.107Z,35.84
2019-03-30T07:40:47.462Z,35.48
2019-03-30T07:43:15.794Z,35.96
2019-03-30T07:45:44.079Z,35.78
2019-03-30T07:48:12.358Z,35.46
2019-03-30T07:50:40.645Z,36.89
2019-03-30T07:53:08.913Z,33.71
2019-03-30T07:55:37.249Z,34.50
2019-03-30T07:58:05.539Z,33.61
2019-03-30T08:00:33.854Z,35.94
2019-03-30T08:03:02.134Z,35.18
2019-03-30T08:05:30.435Z,34.86
2019-03-30T08:07:58.717Z,32.68
2019-03-30T08:10:26.999Z,32.41
2019-03-30T08:12:55.264Z,32.59
2019-03-30T08:15:23.623Z,33.37
2019-03-30T08:17:51.892Z,34.54
2019-03-30T08:20:20.158Z,33.85
2019-03-30T08:22:48.431Z,33.71
2019-03-30T08:25:16.710Z,34.30
2019-03-30T08:27:45.059Z,33.76
2019-03-30T08:30:13.396Z,32.46
2019-03-30T08:32:41.670Z,32.02
2019-03-30T08:35:10.011Z,32.14
2019-03-30T08:37:38.283Z,32.95
2019-03-30T08:40:07.202Z,32.34
2019-03-30T08:42:35.578Z,34.25
2019-03-30T08:45:05.604Z,33.47
2019-03-30T08:47:33.904Z,34.60
2019-03-30T08:50:02.166Z,31.99
2019-03-30T08:52:30.453Z,31.62
2019-03-30T08:54:58.735Z,30.85
2019-03-30T08:57:27.003Z,30.35
2019-03-30T08:59:55.272Z,31.14
2019-03-30T09:02:23.579Z,31.69
2019-03-30T09:04:51.844Z,32.38
2019-03-30T09:07:20.123Z,31.37
2019-03-30T09:09:48.404Z,29.66
2019-03-30T09:12:16.666Z,29.48
2019-03-30T09:14:44.962Z,31.24
2019-03-30T09:17:13.217Z,32.45
2019-03-30T09:19:41.469Z,32.35
2019-03-30T09:22:09.782Z,31.25
2019-03-30T09:24:38.048Z,31.20
2019-03-30T09:27:06.314Z,31.59
2019-03-30T09:29:34.582Z,32.72
2019-03-30T09:32:13.547Z,32.20
2019-03-30T09:34:32.846Z,30.14
2019-03-30T09:37:01.144Z,32.46
2019-03-30T09:39:29.439Z,32.63
2019-03-30T09:41:57.731Z,32.02
2019-03-30T09:44:26.024Z,29.43
2019-03-30T09:46:54.298Z,29.62
2019-03-30T09:49:22.578Z,30.87
2019-03-30T09:51:50.872Z,30.66
2019-03-30T09:54:24.083Z,30.73
2019-03-30T09:56:49.162Z,28.78
2019-03-30T09:59:17.476Z,31.10
2019-03-30T10:01:45.750Z,29.29
2019-03-30T10:04:14.066Z,30.90
2019-03-30T10:06:42.349Z,28.07
2019-03-30T10:09:10.641Z,28.25
2019-03-30T10:11:38.925Z,29.45
2019-03-30T10:14:07.214Z,28.59
2019-03-30T10:16:40.109Z,27.37
2019-03-30T10:19:16.552Z,26.97
2019-03-30T10:21:45.402Z,26.62
2019-03-30T10:24:13.688Z,26.60
2019-03-30T10:26:42.020Z,27.28
2019-03-30T10:29:10.353Z,26.95
2019-03-30T10:31:38.693Z,25.90
2019-03-30T10:34:07.094Z,25.79
2019-03-30T10:36:35.384Z,25.07
2019-03-30T10:39:05.532Z,24.88
2019-03-30T10:41:33.875Z,25.68
2019-03-30T10:44:02.143Z,25.37
2019-03-30T10:46:30.415Z,25.69
2019-03-30T10:48:58.712Z,25.41
2019-03-30T10:51:26.994Z,25.56
2019-03-30T10:53:55.284Z,25.16
2019-03-30T10:56:23.570Z,25.40
2019-03-30T10:58:51.869Z,25.53
2019-03-30T11:01:20.217Z,25.86
2019-03-30T11:03:48.471Z,26.70
2019-03-30T11:06:16.932Z,25.34
2019-03-30T11:08:45.210Z,26.07
2019-03-30T11:11:13.509Z,26.04
2019-03-30T11:13:41.793Z,26.24
2019-03-30T11:16:10.066Z,27.12
2019-03-30T11:18:38.378Z,26.64
2019-03-30T11:21:06.637Z,26.39
2019-03-30T11:23:34.938Z,25.56
2019-03-30T11:26:03.218Z,25.94
2019-03-30T11:28:31.506Z,27.59
2019-03-30T11:30:59.861Z,26.49
2019-03-30T11:33:28.143Z,26.47
2019-03-30T11:35:56.415Z,27.46
2019-03-30T11:38:24.722Z,26.48
2019-03-30T11:40:52.998Z,24.68
2019-03-30T11:43:21.302Z,24.38
2019-03-30T11:45:49.580Z,22.68
2019-03-30T11:48:17.845Z,23.81
2019-03-30T11:50:46.130Z,23.83
2019-03-30T11:53:14.396Z,24.54
2019-03-30T11:55:42.679Z,24.02
2019-03-30T11:58:10.952Z,24.87
2019-03-30T12:00:39.288Z,24.14
2019-03-30T12:03:07.679Z,24.55
2019-03-30T12:05:35.956Z,23.16
2019-03-30T12:08:04.264Z,23.64
2019-03-30T12:10:32.625Z,22.29
2019-03-30T12:13:00.918Z,21.23
2019-03-30T12:15:29.218Z,22.94
2019-03-30T12:17:57.574Z,21.48
2019-03-30T12:20:25.888Z,19.83
2019-03-30T12:22:54.156Z,19.74
2019-03-30T12:25:34.738Z,21.10
2019-03-30T12:27:52.476Z,19.30
2019-03-30T12:30:20.811Z,19.73
2019-03-30T12:32:49.081Z,19.13
2019-03-30T12:35:17.435Z,18.84
2019-03-30T12:37:45.727Z,17.41
2019-03-30T12:40:14.130Z,17.23
2019-03-30T12:42:42.472Z,17.00
2019-03-30T12:45:12.168Z,16.96
2019-03-30T12:47:40.461Z,17.97
2019-03-30T12:50:09.093Z,17.19
2019-03-30T12:52:37.379Z,16.37
2019-03-30T12:55:05.637Z,16.16
2019-03-30T12:57:33.962Z,17.71
2019-03-30T13:00:02.246Z,16.96
2019-03-30T13:02:30.624Z,16.40
2019-03-30T13:04:58.912Z,16.47
2019-03-30T13:07:27.181Z,17.35
2019-03-30T13:09:55.462Z,15.57
2019-03-30T13:12:23.809Z,14.65
2019-03-30T13:14:52.099Z,15.56
2019-03-30T13:17:20.360Z,15.56
2019-03-30T13:19:48.628Z,15.04
2019-03-30T13:22:16.935Z,14.49
2019-03-30T13:24:45.208Z,13.23
2019-03-30T13:27:13.523Z,13.89
2019-03-30T13:29:41.786Z,13.58
2019-03-30T13:32:10.154Z,13.75
2019-03-30T13:34:38.411Z,13.44
2019-03-30T13:37:17.115Z,13.77
2019-03-30T13:39:45.831Z,13.48
2019-03-30T13:42:15.191Z,13.81
2019-03-30T13:44:43.469Z,14.03
2019-03-30T13:47:11.836Z,15.72
2019-03-30T13:49:40.110Z,15.09
2019-03-30T13:52:08.392Z,15.10
2019-03-30T13:54:38.747Z,13.96
2019-03-30T13:57:06.659Z,14.22
2019-03-30T13:59:34.930Z,13.38
2019-03-30T14:02:03.222Z,14.95
2019-03-30T14:04:31.491Z,14.10
2019-03-30T14:06:59.855Z,14.62
2019-03-30T14:09:28.128Z,14.86
2019-03-30T14:11:56.414Z,14.10
2019-03-30T14:14:24.678Z,13.34
2019-03-30T14:16:52.947Z,13.45
2019-03-30T14:19:21.242Z,13.45
2019-03-30T14:21:49.507Z,13.13
2019-03-30T14:24:17.773Z,12.51
2019-03-30T14:26:46.050Z,13.74
2019-03-30T14:29:14.368Z,13.54
2019-03-30T14:31:42.632Z,14.67
2019-03-30T14:34:10.892Z,14.12
2019-03-30T14:36:39.152Z,14.22
2019-03-30T14:39:07.965Z,13.27
2019-03-30T14:41:36.594Z,14.08
2019-03-30T14:44:04.870Z,14.27
2019-03-30T14:46:33.148Z,14.31
2019-03-30T14:49:01.424Z,14.22
2019-03-30T14:51:29.703Z,13.49
2019-03-30T14:53:57.975Z,14.34
2019-03-30T14:56:26.256Z,14.67
2019-03-30T14:58:54.614Z,14.19
2019-03-30T15:01:22.875Z,13.78
2019-03-30T15:03:51.140Z,13.53
2019-03-30T15:06:19.422Z,12.80
2019-03-30T15:08:47.682Z,13.56
2019-03-30T15:11:15.965Z,13.56
2019-03-30T15:13:44.321Z,13.13
2019-03-30T15:16:20.156Z,12.40
2019-03-30T15:18:48.408Z,13.12
2019-03-30T15:21:16.769Z,12.13
2019-03-30T15:23:45.047Z,13.53
2019-03-30T15:26:13.298Z,12.62
2019-03-30T15:28:42.858Z,12.88
2019-03-30T15:31:11.329Z,13.14
2019-03-30T15:33:39.626Z,12.57
2019-03-30T15:36:07.887Z,11.88
2019-03-30T15:38:36.169Z,12.33
2019-03-30T15:41:04.893Z,12.52
2019-03-30T15:43:38.512Z,13.40
2019-03-30T15:46:03.269Z,12.92
2019-03-30T15:48:31.544Z,11.88
2019-03-30T15:50:59.816Z,11.86
2019-03-30T15:53:28.106Z,12.28
2019-03-30T15:55:56.402Z,12.33
2019-03-30T15:58:24.762Z,13.52
2019-03-30T16:00:56.946Z,12.46
2019-03-30T16:03:25.395Z,12.83
2019-03-30T16:05:53.723Z,14.35
2019-03-30T16:08:21.995Z,14.19
2019-03-30T16:10:52.319Z,13.67
2019-03-30T16:13:20.410Z,14.02
2019-03-30T16:15:48.685Z,15.58
2019-03-30T16:18:16.978Z,14.18
2019-03-30T16:20:45.265Z,13.60
2019-03-30T16:23:13.530Z,14.66
2019-03-30T16:25:41.908Z,15.10
2019-03-30T16:28:10.288Z,14.52
2019-03-30T16:30:38.589Z,15.27
2019-03-30T16:33:06.945Z,15.23
2019-03-30T16:35:35.221Z,15.05
2019-03-30T16:38:03.484Z,15.41
2019-03-30T16:40:31.754Z,14.60
2019-03-30T16:43:00.030Z,16.36
2019-03-30T16:45:28.334Z,16.29
2019-03-30T16:47:56.638Z,16.80
2019-03-30T16:50:24.934Z,18.01
2019-03-30T16:52:53.189Z,17.67
2019-03-30T16:55:21.503Z,18.68
2019-03-30T16:57:49.766Z,17.25
2019-03-30T17:00:18.729Z,17.67
2019-03-30T17:02:46.998Z,18.66
2019-03-30T17:05:15.329Z,17.33
2019-03-30T17:07:43.592Z,17.01
2019-03-30T17:10:12.131Z,18.07
2019-03-30T17:12:40.533Z,18.08
2019-03-30T17:15:09.171Z,18.12
2019-03-30T17:17:37.471Z,19.12
2019-03-30T17:20:08.087Z,19.40
2019-03-30T17:22:36.369Z,18.81
2019-03-30T17:25:06.286Z,18.42
2019-03-30T17:27:35.107Z,19.06
2019-03-30T17:30:04.373Z,18.54
2019-03-30T17:32:32.638Z,17.84
2019-03-30T17:35:00.921Z,17.91
2019-03-30T17:37:29.239Z,19.37
2019-03-30T17:39:57.506Z,18.67
2019-03-30T17:42:25.838Z,18.27
2019-03-30T17:44:54.149Z,18.49
2019-03-30T17:47:22.405Z,18.25
2019-03-30T17:49:50.708Z,18.68
2019-03-30T17:52:19.004Z,18.09
2019-03-30T17:54:47.253Z,18.46
2019-03-30T17:57:17.506Z,18.64
2019-03-30T17:59:45.533Z,18.27
2019-03-30T18:02:13.874Z,19.45
2019-03-30T18:04:42.147Z,19.83
2019-03-30T18:07:13.523Z,19.43
2019-03-30T18:09:40.436Z,19.83
2019-03-30T18:12:08.699Z,19.08
2019-03-30T18:14:36.974Z,19.42
2019-03-30T18:17:05.342Z,19.48
2019-03-30T18:19:33.602Z,19.57
2019-03-30T18:22:01.888Z,19.43
2019-03-30T18:24:30.318Z,19.35
2019-03-30T18:26:58.603Z,19.94
2019-03-30T18:29:26.892Z,20.84
2019-03-30T18:31:55.184Z,19.82
2019-03-30T18:34:23.468Z,19.14
2019-03-30T18:36:51.817Z,19.68
2019-03-30T18:39:20.135Z,20.21
2019-03-30T18:41:48.415Z,20.21
2019-03-30T18:44:17.276Z,19.98
2019-03-30T18:46:45.614Z,20.06
2019-03-30T18:49:13.901Z,19.89
2019-03-30T18:51:42.942Z,20.51
2019-03-30T18:54:16.574Z,21.30
2019-03-30T18:56:44.833Z,20.29
2019-03-30T18:59:13.120Z,20.75
2019-03-30T19:01:41.394Z,20.75
2019-03-30T19:04:09.674Z,21.46
2019-03-30T19:06:37.943Z,21.55
2019-03-30T19:09:07.239Z,21.80
2019-03-30T19:11:35.921Z,22.81
2019-03-30T19:14:04.327Z,21.76
2019-03-30T19:16:32.585Z,20.91
2019-03-30T19:19:00.862Z,21.39
2019-03-30T19:21:29.156Z,21.16
2019-03-30T19:23:57.420Z,20.85
2019-03-30T19:26:25.714Z,21.63
2019-03-30T19:28:56.529Z,21.79
2019-03-30T19:31:23.979Z,21.44
2019-03-30T19:33:52.273Z,21.71
2019-03-30T19:36:20.522Z,21.41
2019-03-30T19:38:48.821Z,22.12
2019-03-30T19:41:17.090Z,21.96
2019-03-30T19:43:45.376Z,22.43
2019-03-30T19:46:13.650Z,22.53
2019-03-30T19:48:41.937Z,23.07
2019-03-30T19:51:10.236Z,23.92
2019-03-30T19:53:38.615Z,24.22
2019-03-30T19:56:06.999Z,23.73
2019-03-30T19:58:35.244Z,23.86
2019-03-30T20:01:03.510Z,24.48
2019-03-30T20:03:31.775Z,23.53
2019-03-30T20:06:00.071Z,24.97
2019-03-30T20:08:28.332Z,25.26
2019-03-30T20:10:56.656Z,24.28
2019-03-30T20:13:24.940Z,25.31
2019-03-30T20:15:53.220Z,25.29
2019-03-30T20:18:21.723Z,23.58
2019-03-30T20:20:49.993Z,25.32
2019-03-30T20:23:18.363Z,25.62
2019-03-30T20:25:46.638Z,26.80
2019-03-30T20:28:14.906Z,24.20
2019-03-30T20:30:43.194Z,24.64
2019-03-30T20:33:11.566Z,26.35
2019-03-30T20:35:39.901Z,26.12
2019-03-30T20:38:09.830Z,25.14
2019-03-30T20:40:38.177Z,24.97
2019-03-30T20:43:06.445Z,24.69
2019-03-30T20:45:34.921Z,25.17
2019-03-30T20:48:03.209Z,24.01
2019-03-30T20:50:31.587Z,25.12
2019-03-30T20:52:59.921Z,23.87
2019-03-30T20:55:28.200Z,23.53
2019-03-30T20:57:56.495Z,23.55
2019-03-30T21:00:24.824Z,23.65
2019-03-30T21:02:53.121Z,24.72
2019-03-30T21:05:21.393Z,25.16
2019-03-30T21:07:49.696Z,24.84
2019-03-30T21:10:18.040Z,24.18
2019-03-30T21:12:46.308Z,24.02
2019-03-30T21:15:16.482Z,23.80
2019-03-30T21:17:44.772Z,23.44
2019-03-30T21:20:13.927Z,24.57
2019-03-30T21:22:42.214Z,26.05
2019-03-30T21:25:11.240Z,25.21
2019-03-30T21:27:39.517Z,23.94
2019-03-30T21:30:09.355Z,23.73
2019-03-30T21:32:37.714Z,25.87
2019-03-30T21:35:07.487Z,26.24
2019-03-30T21:37:35.813Z,26.64
2019-03-30T21:40:05.738Z,25.50
2019-03-30T21:42:34.018Z,25.02
2019-03-30T21:45:02.277Z,25.42
2019-03-30T21:47:30.557Z,24.39
2019-03-30T21:49:58.883Z,25.22
2019-03-30T21:52:27.175Z,24.24
2019-03-30T21:54:57.961Z,26.56
2019-03-30T21:57:27.997Z,25.65
2019-03-30T22:00:08.997Z,24.92
2019-03-30T22:02:26.279Z,23.85
2019-03-30T22:04:54.586Z,24.02
2019-03-30T22:07:22.912Z,23.94
2019-03-30T22:09:51.236Z,24.52
2019-03-30T22:12:19.529Z,24.40
2019-03-30T22:14:47.812Z,24.21
2019-03-30T22:17:16.097Z,23.83
2019-03-30T22:19:44.365Z,25.31
2019-03-30T22:22:12.649Z,24.70
2019-03-30T22:24:40.941Z,24.92
2019-03-30T22:27:09.217Z,24.92
2019-03-30T22:29:37.498Z,24.21
2019-03-30T22:32:05.806Z,25.06
2019-03-30T22:34:34.068Z,24.80
2019-03-30T22:37:02.331Z,24.68
2019-03-30T22:39:30.586Z,24.38
2019-03-30T22:41:58.869Z,26.42
2019-03-30T22:44:27.133Z,25.94
2019-03-30T22:46:55.403Z,24.49
2019-03-30T22:49:23.682Z,24.63
2019-03-30T22:51:51.956Z,23.66
2019-03-30T22:54:20.229Z,23.85
2019-03-30T22:56:48.495Z,24.61
2019-03-30T22:59:16.761Z,23.94
2019-03-30T23:01:45.012Z,24.47
2019-03-30T23:04:13.273Z,24.14
2019-03-30T23:06:41.543Z,24.34
2019-03-30T23:09:11.570Z,24.39
2019-03-30T23:11:39.795Z,24.83
2019-03-30T23:14:08.049Z,24.95
2019-03-30T23:16:36.324Z,24.39
2019-03-30T23:19:04.663Z,25.12
2019-03-30T23:21:32.927Z,24.43
2019-03-30T23:24:01.177Z,24.65
2019-03-30T23:26:29.443Z,24.51
2019-03-30T23:28:59.445Z,24.61
2019-03-30T23:31:27.691Z,24.87
2019-03-30T23:33:55.986Z,26.01
2019-03-30T23:36:24.234Z,25.17
2019-03-30T23:38:52.506Z,26.58
2019-03-30T23:41:20.778Z,26.18
2019-03-30T23:43:49.026Z,27.13
2019-03-30T23:46:17.292Z,28.41
2019-03-30T23:48:45.569Z,26.57
2019-03-30T23:51:13.819Z,26.85
2019-03-30T23:53:42.093Z,26.05
2019-03-30T23:56:21.566Z,25.92
2019-03-30T23:58:50.106Z,28.03
